sensor_id;sensor_type;location;lat;lon;timestamp;temperature;humidity
45685;DHT22;46836;48.388;16.210;2023-03-15T00:02:00;8.80;99.90
45685;DHT22;46836;48.388;16.210;2023-03-15T00:04:27;8.70;99.90
45685;DHT22;46836;48.388;16.210;2023-03-15T00:06:55;8.80;99.90
45685;DHT22;46836;48.388;16.210;2023-03-15T00:09:22;8.80;99.90
45685;DHT22;46836;48.388;16.210;2023-03-15T00:11:51;8.70;99.90
45685;DHT22;46836;48.388;16.210;2023-03-15T00:14:20;8.70;99.90
45685;DHT22;46836;48.388;16.210;2023-03-15T00:16:48;8.70;99.90
45685;DHT22;46836;48.388;16.210;2023-03-15T00:19:15;8.60;99.90
45685;DHT22;46836;48.388;16.210;2023-03-15T00:21:42;8.60;99.90
45685;DHT22;46836;48.388;16.210;2023-03-15T00:24:10;8.60;99.90
45685;DHT22;46836;48.388;16.210;2023-03-15T00:26:37;8.50;99.90
45685;DHT22;46836;48.388;16.210;2023-03-15T00:29:05;8.50;99.90
45685;DHT22;46836;48.388;16.210;2023-03-15T00:31:32;8.50;99.90
45685;DHT22;46836;48.388;16.210;2023-03-15T00:33:59;8.50;99.90
45685;DHT22;46836;48.388;16.210;2023-03-15T00:36:26;8.40;99.90
45685;DHT22;46836;48.388;16.210;2023-03-15T00:38:54;8.40;99.90
45685;DHT22;46836;48.388;16.210;2023-03-15T00:41:23;8.40;99.90
45685;DHT22;46836;48.388;16.210;2023-03-15T00:43:50;8.40;99.90
45685;DHT22;46836;48.388;16.210;2023-03-15T00:46:18;8.30;99.90
45685;DHT22;46836;48.388;16.210;2023-03-15T00:48:49;8.30;99.90
45685;DHT22;46836;48.388;16.210;2023-03-15T00:51:22;8.30;99.90
45685;DHT22;46836;48.388;16.210;2023-03-15T00:53:51;8.40;99.90
45685;DHT22;46836;48.388;16.210;2023-03-15T00:56:24;8.40;99.90
45685;DHT22;46836;48.388;16.210;2023-03-15T00:58:52;8.40;99.90
45685;DHT22;46836;48.388;16.210;2023-03-15T01:01:23;8.40;99.90
45685;DHT22;46836;48.388;16.210;2023-03-15T01:03:50;8.20;99.90
45685;DHT22;46836;48.388;16.210;2023-03-15T01:06:25;7.90;99.90
45685;DHT22;46836;48.388;16.210;2023-03-15T01:08:53;7.60;99.90
45685;DHT22;46836;48.388;16.210;2023-03-15T01:11:25;7.50;99.90
45685;DHT22;46836;48.388;16.210;2023-03-15T01:13:55;7.40;99.90
45685;DHT22;46836;48.388;16.210;2023-03-15T01:16:23;7.20;99.90
45685;DHT22;46836;48.388;16.210;2023-03-15T01:18:51;7.10;99.90
45685;DHT22;46836;48.388;16.210;2023-03-15T01:21:20;7.00;99.90
45685;DHT22;46836;48.388;16.210;2023-03-15T01:23:47;7.00;99.90
45685;DHT22;46836;48.388;16.210;2023-03-15T01:26:15;7.00;99.90
45685;DHT22;46836;48.388;16.210;2023-03-15T01:28:43;7.00;99.90
45685;DHT22;46836;48.388;16.210;2023-03-15T01:31:30;6.90;99.90
45685;DHT22;46836;48.388;16.210;2023-03-15T01:33:58;6.80;99.90
45685;DHT22;46836;48.388;16.210;2023-03-15T01:36:26;6.80;99.90
45685;DHT22;46836;48.388;16.210;2023-03-15T01:38:53;6.70;99.90
45685;DHT22;46836;48.388;16.210;2023-03-15T01:41:21;6.70;99.90
45685;DHT22;46836;48.388;16.210;2023-03-15T01:43:50;6.70;99.90
45685;DHT22;46836;48.388;16.210;2023-03-15T01:46:32;6.60;99.90
45685;DHT22;46836;48.388;16.210;2023-03-15T01:49:10;6.60;99.90
45685;DHT22;46836;48.388;16.210;2023-03-15T01:51:43;6.50;99.90
45685;DHT22;46836;48.388;16.210;2023-03-15T01:54:25;6.40;99.90
45685;DHT22;46836;48.388;16.210;2023-03-15T01:57:03;6.40;99.90
45685;DHT22;46836;48.388;16.210;2023-03-15T01:59:39;6.40;99.90
45685;DHT22;46836;48.388;16.210;2023-03-15T02:02:09;6.30;99.90
45685;DHT22;46836;48.388;16.210;2023-03-15T02:04:45;6.30;99.90
45685;DHT22;46836;48.388;16.210;2023-03-15T02:07:15;6.30;99.90
45685;DHT22;46836;48.388;16.210;2023-03-15T02:09:46;6.30;99.90
45685;DHT22;46836;48.388;16.210;2023-03-15T02:12:17;6.20;99.90
45685;DHT22;46836;48.388;16.210;2023-03-15T02:14:45;6.20;99.90
45685;DHT22;46836;48.388;16.210;2023-03-15T02:17:12;6.20;99.90
45685;DHT22;46836;48.388;16.210;2023-03-15T02:19:45;6.20;99.90
45685;DHT22;46836;48.388;16.210;2023-03-15T02:22:21;6.20;99.90
45685;DHT22;46836;48.388;16.210;2023-03-15T02:27:41;6.20;99.90
45685;DHT22;46836;48.388;16.210;2023-03-15T02:30:10;6.10;99.90
45685;DHT22;46836;48.388;16.210;2023-03-15T02:32:38;6.10;99.90
45685;DHT22;46836;48.388;16.210;2023-03-15T02:35:06;6.10;99.90
45685;DHT22;46836;48.388;16.210;2023-03-15T02:37:33;6.10;99.90
45685;DHT22;46836;48.388;16.210;2023-03-15T02:40:00;6.00;99.90
45685;DHT22;46836;48.388;16.210;2023-03-15T02:42:27;6.00;99.90
45685;DHT22;46836;48.388;16.210;2023-03-15T02:44:55;6.00;99.90
45685;DHT22;46836;48.388;16.210;2023-03-15T02:47:26;5.90;99.90
45685;DHT22;46836;48.388;16.210;2023-03-15T02:49:56;5.90;99.90
45685;DHT22;46836;48.388;16.210;2023-03-15T02:52:23;5.80;99.90
45685;DHT22;46836;48.388;16.210;2023-03-15T02:54:50;5.80;99.90
45685;DHT22;46836;48.388;16.210;2023-03-15T02:57:18;5.80;99.90
45685;DHT22;46836;48.388;16.210;2023-03-15T02:59:45;5.80;99.90
45685;DHT22;46836;48.388;16.210;2023-03-15T03:02:13;5.70;99.90
45685;DHT22;46836;48.388;16.210;2023-03-15T03:04:40;5.70;99.90
45685;DHT22;46836;48.388;16.210;2023-03-15T03:07:07;5.70;99.90
45685;DHT22;46836;48.388;16.210;2023-03-15T03:09:34;5.70;99.90
45685;DHT22;46836;48.388;16.210;2023-03-15T03:12:01;5.70;99.90
45685;DHT22;46836;48.388;16.210;2023-03-15T03:14:28;5.60;99.90
45685;DHT22;46836;48.388;16.210;2023-03-15T03:16:56;5.60;99.90
45685;DHT22;46836;48.388;16.210;2023-03-15T03:19:24;5.50;99.90
45685;DHT22;46836;48.388;16.210;2023-03-15T03:21:52;5.50;99.90
45685;DHT22;46836;48.388;16.210;2023-03-15T03:24:19;5.40;99.90
45685;DHT22;46836;48.388;16.210;2023-03-15T03:26:47;5.40;99.90
45685;DHT22;46836;48.388;16.210;2023-03-15T03:29:14;5.40;99.90
45685;DHT22;46836;48.388;16.210;2023-03-15T03:31:43;5.40;99.90
45685;DHT22;46836;48.388;16.210;2023-03-15T03:34:10;5.40;99.90
45685;DHT22;46836;48.388;16.210;2023-03-15T03:36:43;5.40;99.90
45685;DHT22;46836;48.388;16.210;2023-03-15T03:39:11;5.30;99.90
45685;DHT22;46836;48.388;16.210;2023-03-15T03:41:38;5.30;99.90
45685;DHT22;46836;48.388;16.210;2023-03-15T03:44:05;5.30;99.90
45685;DHT22;46836;48.388;16.210;2023-03-15T03:46:32;5.30;99.90
45685;DHT22;46836;48.388;16.210;2023-03-15T03:48:59;5.20;99.90
45685;DHT22;46836;48.388;16.210;2023-03-15T03:51:26;5.20;99.90
45685;DHT22;46836;48.388;16.210;2023-03-15T03:53:53;5.20;99.90
45685;DHT22;46836;48.388;16.210;2023-03-15T03:56:20;5.20;99.90
45685;DHT22;46836;48.388;16.210;2023-03-15T03:58:47;5.20;99.90
45685;DHT22;46836;48.388;16.210;2023-03-15T04:01:14;5.20;99.90
45685;DHT22;46836;48.388;16.210;2023-03-15T04:03:41;5.20;99.90
45685;DHT22;46836;48.388;16.210;2023-03-15T04:06:08;5.20;99.90
45685;DHT22;46836;48.388;16.210;2023-03-15T04:08:35;5.20;99.90
45685;DHT22;46836;48.388;16.210;2023-03-15T04:11:02;5.20;99.90
45685;DHT22;46836;48.388;16.210;2023-03-15T04:13:30;5.20;99.90
45685;DHT22;46836;48.388;16.210;2023-03-15T04:15:57;5.20;99.90
45685;DHT22;46836;48.388;16.210;2023-03-15T04:18:24;5.10;99.90
45685;DHT22;46836;48.388;16.210;2023-03-15T04:20:51;5.10;99.90
45685;DHT22;46836;48.388;16.210;2023-03-15T04:23:23;5.10;99.90
45685;DHT22;46836;48.388;16.210;2023-03-15T04:25:51;5.10;99.90
45685;DHT22;46836;48.388;16.210;2023-03-15T04:28:21;5.10;99.90
45685;DHT22;46836;48.388;16.210;2023-03-15T04:30:49;5.10;99.90
45685;DHT22;46836;48.388;16.210;2023-03-15T04:33:16;5.10;99.90
45685;DHT22;46836;48.388;16.210;2023-03-15T04:35:44;5.10;99.90
45685;DHT22;46836;48.388;16.210;2023-03-15T04:38:11;5.10;99.90
45685;DHT22;46836;48.388;16.210;2023-03-15T04:40:38;5.10;99.90
45685;DHT22;46836;48.388;16.210;2023-03-15T04:43:05;5.00;99.90
45685;DHT22;46836;48.388;16.210;2023-03-15T04:45:32;5.10;99.90
45685;DHT22;46836;48.388;16.210;2023-03-15T04:48:01;5.10;99.90
45685;DHT22;46836;48.388;16.210;2023-03-15T04:50:29;5.00;99.90
45685;DHT22;46836;48.388;16.210;2023-03-15T04:52:57;5.00;99.90
45685;DHT22;46836;48.388;16.210;2023-03-15T04:55:25;5.00;99.90
45685;DHT22;46836;48.388;16.210;2023-03-15T04:57:52;4.90;99.90
45685;DHT22;46836;48.388;16.210;2023-03-15T05:00:20;4.90;99.90
45685;DHT22;46836;48.388;16.210;2023-03-15T05:02:47;4.90;99.90
45685;DHT22;46836;48.388;16.210;2023-03-15T05:05:21;4.90;99.90
45685;DHT22;46836;48.388;16.210;2023-03-15T05:07:50;4.90;99.90
45685;DHT22;46836;48.388;16.210;2023-03-15T05:10:17;4.90;99.90
45685;DHT22;46836;48.388;16.210;2023-03-15T05:12:45;4.90;99.90
45685;DHT22;46836;48.388;16.210;2023-03-15T05:15:12;4.80;99.90
45685;DHT22;46836;48.388;16.210;2023-03-15T05:17:39;4.80;99.90
45685;DHT22;46836;48.388;16.210;2023-03-15T05:20:07;4.80;99.90
45685;DHT22;46836;48.388;16.210;2023-03-15T05:22:39;4.80;99.90
45685;DHT22;46836;48.388;16.210;2023-03-15T05:25:08;4.80;99.90
45685;DHT22;46836;48.388;16.210;2023-03-15T05:27:36;4.80;99.90
45685;DHT22;46836;48.388;16.210;2023-03-15T05:30:04;4.80;99.90
45685;DHT22;46836;48.388;16.210;2023-03-15T05:32:32;4.70;99.90
45685;DHT22;46836;48.388;16.210;2023-03-15T05:35:06;4.70;99.90
45685;DHT22;46836;48.388;16.210;2023-03-15T05:37:33;4.70;99.90
45685;DHT22;46836;48.388;16.210;2023-03-15T05:40:01;4.70;99.90
45685;DHT22;46836;48.388;16.210;2023-03-15T05:42:28;4.70;99.90
45685;DHT22;46836;48.388;16.210;2023-03-15T05:44:56;4.70;99.90
45685;DHT22;46836;48.388;16.210;2023-03-15T05:47:23;4.80;99.90
45685;DHT22;46836;48.388;16.210;2023-03-15T05:49:50;4.70;99.90
45685;DHT22;46836;48.388;16.210;2023-03-15T05:52:18;4.70;99.90
45685;DHT22;46836;48.388;16.210;2023-03-15T05:54:45;4.70;99.90
45685;DHT22;46836;48.388;16.210;2023-03-15T05:57:12;4.80;99.90
45685;DHT22;46836;48.388;16.210;2023-03-15T05:59:39;4.80;99.90
45685;DHT22;46836;48.388;16.210;2023-03-15T06:02:06;4.80;99.90
45685;DHT22;46836;48.388;16.210;2023-03-15T06:04:33;4.80;99.90
45685;DHT22;46836;48.388;16.210;2023-03-15T06:07:00;4.80;99.90
45685;DHT22;46836;48.388;16.210;2023-03-15T06:09:27;4.80;99.90
45685;DHT22;46836;48.388;16.210;2023-03-15T06:11:55;5.10;99.90
45685;DHT22;46836;48.388;16.210;2023-03-15T06:14:22;5.30;99.90
45685;DHT22;46836;48.388;16.210;2023-03-15T06:16:49;5.50;99.90
45685;DHT22;46836;48.388;16.210;2023-03-15T06:19:16;5.60;99.90
45685;DHT22;46836;48.388;16.210;2023-03-15T06:21:43;5.50;99.90
45685;DHT22;46836;48.388;16.210;2023-03-15T06:24:10;5.70;99.90
45685;DHT22;46836;48.388;16.210;2023-03-15T06:26:38;5.60;99.90
45685;DHT22;46836;48.388;16.210;2023-03-15T06:29:05;5.50;99.90
45685;DHT22;46836;48.388;16.210;2023-03-15T06:31:33;5.40;99.90
45685;DHT22;46836;48.388;16.210;2023-03-15T06:34:00;5.40;99.90
45685;DHT22;46836;48.388;16.210;2023-03-15T06:36:27;5.30;99.90
45685;DHT22;46836;48.388;16.210;2023-03-15T06:38:54;5.20;99.90
45685;DHT22;46836;48.388;16.210;2023-03-15T06:41:21;5.20;99.90
45685;DHT22;46836;48.388;16.210;2023-03-15T06:43:48;5.20;99.90
45685;DHT22;46836;48.388;16.210;2023-03-15T06:46:16;5.20;99.90
45685;DHT22;46836;48.388;16.210;2023-03-15T06:48:43;5.20;99.90
45685;DHT22;46836;48.388;16.210;2023-03-15T06:51:10;5.10;99.90
45685;DHT22;46836;48.388;16.210;2023-03-15T06:53:37;5.20;99.90
45685;DHT22;46836;48.388;16.210;2023-03-15T06:56:04;5.20;99.90
45685;DHT22;46836;48.388;16.210;2023-03-15T06:58:31;5.30;99.90
45685;DHT22;46836;48.388;16.210;2023-03-15T07:00:58;5.30;99.90
45685;DHT22;46836;48.388;16.210;2023-03-15T07:03:25;5.20;99.90
45685;DHT22;46836;48.388;16.210;2023-03-15T07:05:52;5.20;99.90
45685;DHT22;46836;48.388;16.210;2023-03-15T07:08:22;5.20;99.90
45685;DHT22;46836;48.388;16.210;2023-03-15T07:10:50;5.20;99.90
45685;DHT22;46836;48.388;16.210;2023-03-15T07:13:18;5.20;99.90
45685;DHT22;46836;48.388;16.210;2023-03-15T07:15:45;5.20;99.90
45685;DHT22;46836;48.388;16.210;2023-03-15T07:18:13;5.20;99.90
45685;DHT22;46836;48.388;16.210;2023-03-15T07:20:40;5.20;99.90
45685;DHT22;46836;48.388;16.210;2023-03-15T07:23:07;5.20;99.90
45685;DHT22;46836;48.388;16.210;2023-03-15T07:25:34;5.20;99.90
45685;DHT22;46836;48.388;16.210;2023-03-15T07:28:20;5.30;99.90
45685;DHT22;46836;48.388;16.210;2023-03-15T07:30:57;5.30;99.90
45685;DHT22;46836;48.388;16.210;2023-03-15T07:33:25;5.30;99.90
45685;DHT22;46836;48.388;16.210;2023-03-15T07:35:53;5.40;99.90
45685;DHT22;46836;48.388;16.210;2023-03-15T07:38:22;5.50;99.90
45685;DHT22;46836;48.388;16.210;2023-03-15T07:40:50;5.50;99.90
45685;DHT22;46836;48.388;16.210;2023-03-15T07:43:17;5.50;99.90
45685;DHT22;46836;48.388;16.210;2023-03-15T07:45:45;5.60;99.90
45685;DHT22;46836;48.388;16.210;2023-03-15T07:48:12;5.70;99.90
45685;DHT22;46836;48.388;16.210;2023-03-15T07:50:40;5.70;99.90
45685;DHT22;46836;48.388;16.210;2023-03-15T07:53:07;5.80;99.90
45685;DHT22;46836;48.388;16.210;2023-03-15T07:55:34;5.80;99.90
45685;DHT22;46836;48.388;16.210;2023-03-15T07:58:01;5.90;99.90
45685;DHT22;46836;48.388;16.210;2023-03-15T08:00:29;6.00;99.90
45685;DHT22;46836;48.388;16.210;2023-03-15T08:02:56;6.10;99.90
45685;DHT22;46836;48.388;16.210;2023-03-15T08:05:23;6.20;99.90
45685;DHT22;46836;48.388;16.210;2023-03-15T08:07:54;6.30;99.90
45685;DHT22;46836;48.388;16.210;2023-03-15T08:10:22;6.30;99.90
45685;DHT22;46836;48.388;16.210;2023-03-15T08:12:49;6.30;99.90
45685;DHT22;46836;48.388;16.210;2023-03-15T08:15:17;6.30;99.90
45685;DHT22;46836;48.388;16.210;2023-03-15T08:17:46;6.50;99.90
45685;DHT22;46836;48.388;16.210;2023-03-15T08:20:14;6.70;99.90
45685;DHT22;46836;48.388;16.210;2023-03-15T08:22:47;6.80;99.90
45685;DHT22;46836;48.388;16.210;2023-03-15T08:25:18;7.00;99.90
45685;DHT22;46836;48.388;16.210;2023-03-15T08:27:45;7.00;99.90
45685;DHT22;46836;48.388;16.210;2023-03-15T08:30:13;7.00;99.90
45685;DHT22;46836;48.388;16.210;2023-03-15T08:32:43;7.10;99.90
45685;DHT22;46836;48.388;16.210;2023-03-15T08:35:12;7.20;99.90
45685;DHT22;46836;48.388;16.210;2023-03-15T08:37:41;7.30;99.90
45685;DHT22;46836;48.388;16.210;2023-03-15T08:40:14;7.40;99.90
45685;DHT22;46836;48.388;16.210;2023-03-15T08:42:42;7.50;99.90
45685;DHT22;46836;48.388;16.210;2023-03-15T08:45:09;7.40;99.90
45685;DHT22;46836;48.388;16.210;2023-03-15T08:47:37;7.50;99.90
45685;DHT22;46836;48.388;16.210;2023-03-15T08:50:06;7.60;99.90
45685;DHT22;46836;48.388;16.210;2023-03-15T08:52:34;7.70;99.90
45685;DHT22;46836;48.388;16.210;2023-03-15T08:55:01;7.70;99.90
45685;DHT22;46836;48.388;16.210;2023-03-15T08:57:30;7.70;99.90
45685;DHT22;46836;48.388;16.210;2023-03-15T08:59:59;7.90;99.90
45685;DHT22;46836;48.388;16.210;2023-03-15T09:02:28;7.90;99.90
45685;DHT22;46836;48.388;16.210;2023-03-15T09:04:55;7.80;99.90
45685;DHT22;46836;48.388;16.210;2023-03-15T09:07:22;7.90;99.90
45685;DHT22;46836;48.388;16.210;2023-03-15T09:09:49;7.80;99.90
45685;DHT22;46836;48.388;16.210;2023-03-15T09:12:20;7.80;99.70
45685;DHT22;46836;48.388;16.210;2023-03-15T09:14:47;7.90;99.90
45685;DHT22;46836;48.388;16.210;2023-03-15T09:17:14;8.00;99.90
45685;DHT22;46836;48.388;16.210;2023-03-15T09:19:41;8.10;99.90
45685;DHT22;46836;48.388;16.210;2023-03-15T09:22:09;8.10;99.20
45685;DHT22;46836;48.388;16.210;2023-03-15T09:24:49;8.20;99.90
45685;DHT22;46836;48.388;16.210;2023-03-15T09:27:18;8.30;99.10
45685;DHT22;46836;48.388;16.210;2023-03-15T09:29:45;8.30;98.10
45685;DHT22;46836;48.388;16.210;2023-03-15T09:32:12;8.30;99.30
45685;DHT22;46836;48.388;16.210;2023-03-15T09:34:39;8.20;98.70
45685;DHT22;46836;48.388;16.210;2023-03-15T09:37:08;8.10;99.70
45685;DHT22;46836;48.388;16.210;2023-03-15T09:39:35;8.20;98.50
45685;DHT22;46836;48.388;16.210;2023-03-15T09:42:05;8.10;98.40
45685;DHT22;46836;48.388;16.210;2023-03-15T09:44:46;8.30;99.40
45685;DHT22;46836;48.388;16.210;2023-03-15T09:50:21;8.10;95.80
45685;DHT22;46836;48.388;16.210;2023-03-15T09:53:04;8.20;97.90
45685;DHT22;46836;48.388;16.210;2023-03-15T09:55:35;8.40;97.10
45685;DHT22;46836;48.388;16.210;2023-03-15T09:58:04;8.40;97.70
45685;DHT22;46836;48.388;16.210;2023-03-15T10:01:09;8.40;95.60
45685;DHT22;46836;48.388;16.210;2023-03-15T10:03:50;8.50;95.70
45685;DHT22;46836;48.388;16.210;2023-03-15T10:06:20;8.70;96.60
45685;DHT22;46836;48.388;16.210;2023-03-15T10:08:59;8.90;97.10
45685;DHT22;46836;48.388;16.210;2023-03-15T10:17:15;9.00;95.40
45685;DHT22;46836;48.388;16.210;2023-03-15T10:19:52;9.00;94.60
45685;DHT22;46836;48.388;16.210;2023-03-15T10:22:55;9.00;94.90
45685;DHT22;46836;48.388;16.210;2023-03-15T10:25:28;9.00;93.80
45685;DHT22;46836;48.388;16.210;2023-03-15T10:28:02;9.20;94.70
45685;DHT22;46836;48.388;16.210;2023-03-15T10:30:33;9.50;94.90
45685;DHT22;46836;48.388;16.210;2023-03-15T10:33:05;9.60;95.00
45685;DHT22;46836;48.388;16.210;2023-03-15T10:35:37;9.70;95.70
45685;DHT22;46836;48.388;16.210;2023-03-15T10:38:22;10.00;93.30
45685;DHT22;46836;48.388;16.210;2023-03-15T10:40:55;10.30;92.00
45685;DHT22;46836;48.388;16.210;2023-03-15T10:43:29;10.60;91.40
45685;DHT22;46836;48.388;16.210;2023-03-15T10:46:05;10.50;91.80
45685;DHT22;46836;48.388;16.210;2023-03-15T10:48:55;10.50;93.40
45685;DHT22;46836;48.388;16.210;2023-03-15T10:51:39;10.20;90.40
45685;DHT22;46836;48.388;16.210;2023-03-15T10:54:20;10.20;89.70
45685;DHT22;46836;48.388;16.210;2023-03-15T10:57:14;10.20;89.20
45685;DHT22;46836;48.388;16.210;2023-03-15T10:59:58;10.40;89.60
45685;DHT22;46836;48.388;16.210;2023-03-15T11:02:25;10.50;88.10
45685;DHT22;46836;48.388;16.210;2023-03-15T11:05:02;10.50;91.00
45685;DHT22;46836;48.388;16.210;2023-03-15T11:07:33;10.40;87.20
45685;DHT22;46836;48.388;16.210;2023-03-15T11:10:03;10.20;88.90
45685;DHT22;46836;48.388;16.210;2023-03-15T11:12:32;10.20;90.90
45685;DHT22;46836;48.388;16.210;2023-03-15T11:15:09;10.00;90.30
45685;DHT22;46836;48.388;16.210;2023-03-15T11:17:45;9.90;91.20
45685;DHT22;46836;48.388;16.210;2023-03-15T11:20:26;9.80;91.00
45685;DHT22;46836;48.388;16.210;2023-03-15T11:22:57;9.70;90.70
45685;DHT22;46836;48.388;16.210;2023-03-15T11:25:29;9.60;91.30
45685;DHT22;46836;48.388;16.210;2023-03-15T11:27:59;9.60;90.90
45685;DHT22;46836;48.388;16.210;2023-03-15T11:30:30;9.50;92.20
45685;DHT22;46836;48.388;16.210;2023-03-15T11:33:06;9.50;91.70
45685;DHT22;46836;48.388;16.210;2023-03-15T11:35:45;9.60;91.40
45685;DHT22;46836;48.388;16.210;2023-03-15T11:38:31;9.60;91.10
45685;DHT22;46836;48.388;16.210;2023-03-15T11:40:59;9.70;91.10
45685;DHT22;46836;48.388;16.210;2023-03-15T11:49:48;9.70;87.80
45685;DHT22;46836;48.388;16.210;2023-03-15T11:52:24;9.70;87.80
45685;DHT22;46836;48.388;16.210;2023-03-15T11:54:55;9.60;88.50
45685;DHT22;46836;48.388;16.210;2023-03-15T12:08:40;10.00;83.30
45685;DHT22;46836;48.388;16.210;2023-03-15T12:16:30;9.80;86.00
45685;DHT22;46836;48.388;16.210;2023-03-15T12:19:09;9.80;89.50
45685;DHT22;46836;48.388;16.210;2023-03-15T12:21:39;9.80;88.80
45685;DHT22;46836;48.388;16.210;2023-03-15T12:24:25;9.90;89.40
45685;DHT22;46836;48.388;16.210;2023-03-15T12:27:25;10.00;86.70
45685;DHT22;46836;48.388;16.210;2023-03-15T12:30:00;10.20;81.80
45685;DHT22;46836;48.388;16.210;2023-03-15T12:32:29;10.20;81.20
45685;DHT22;46836;48.388;16.210;2023-03-15T12:35:04;10.30;81.90
45685;DHT22;46836;48.388;16.210;2023-03-15T12:50:47;10.40;84.20
45685;DHT22;46836;48.388;16.210;2023-03-15T12:55:50;10.50;87.40
45685;DHT22;46836;48.388;16.210;2023-03-15T12:58:31;10.70;80.70
45685;DHT22;46836;48.388;16.210;2023-03-15T13:01:03;10.60;79.80
45685;DHT22;46836;48.388;16.210;2023-03-15T13:03:34;10.80;81.80
45685;DHT22;46836;48.388;16.210;2023-03-15T13:06:13;10.60;79.90
45685;DHT22;46836;48.388;16.210;2023-03-15T13:11:54;10.20;73.60
45685;DHT22;46836;48.388;16.210;2023-03-15T13:14:41;10.50;78.90
45685;DHT22;46836;48.388;16.210;2023-03-15T13:23:10;11.40;75.10
45685;DHT22;46836;48.388;16.210;2023-03-15T13:28:23;11.50;73.30
45685;DHT22;46836;48.388;16.210;2023-03-15T13:30:53;11.40;76.60
45685;DHT22;46836;48.388;16.210;2023-03-15T13:33:23;11.40;76.10
45685;DHT22;46836;48.388;16.210;2023-03-15T13:41:20;11.20;72.50
45685;DHT22;46836;48.388;16.210;2023-03-15T13:43:49;11.00;74.00
45685;DHT22;46836;48.388;16.210;2023-03-15T13:46:19;11.00;76.90
45685;DHT22;46836;48.388;16.210;2023-03-15T13:48:50;11.00;78.80
45685;DHT22;46836;48.388;16.210;2023-03-15T13:51:24;11.20;77.60
45685;DHT22;46836;48.388;16.210;2023-03-15T13:56:36;11.10;73.30
45685;DHT22;46836;48.388;16.210;2023-03-15T13:59:15;11.10;73.90
45685;DHT22;46836;48.388;16.210;2023-03-15T14:01:43;11.00;73.70
45685;DHT22;46836;48.388;16.210;2023-03-15T14:04:16;10.90;75.10
45685;DHT22;46836;48.388;16.210;2023-03-15T14:06:44;10.80;73.30
45685;DHT22;46836;48.388;16.210;2023-03-15T14:09:24;10.60;72.60
45685;DHT22;46836;48.388;16.210;2023-03-15T14:12:05;10.80;71.10
45685;DHT22;46836;48.388;16.210;2023-03-15T14:14:36;10.60;69.30
45685;DHT22;46836;48.388;16.210;2023-03-15T14:17:19;10.50;71.50
45685;DHT22;46836;48.388;16.210;2023-03-15T14:19:55;10.50;69.30
45685;DHT22;46836;48.388;16.210;2023-03-15T14:22:32;10.40;70.10
45685;DHT22;46836;48.388;16.210;2023-03-15T14:25:03;10.40;69.80
45685;DHT22;46836;48.388;16.210;2023-03-15T14:27:31;10.70;74.70
45685;DHT22;46836;48.388;16.210;2023-03-15T14:30:00;10.90;70.90
45685;DHT22;46836;48.388;16.210;2023-03-15T14:32:37;10.90;70.90
45685;DHT22;46836;48.388;16.210;2023-03-15T14:37:37;10.70;72.00
45685;DHT22;46836;48.388;16.210;2023-03-15T14:42:48;10.80;69.40
45685;DHT22;46836;48.388;16.210;2023-03-15T14:45:17;10.70;70.70
45685;DHT22;46836;48.388;16.210;2023-03-15T14:50:41;10.60;74.10
45685;DHT22;46836;48.388;16.210;2023-03-15T14:53:13;10.40;74.20
45685;DHT22;46836;48.388;16.210;2023-03-15T14:55:41;10.40;72.00
45685;DHT22;46836;48.388;16.210;2023-03-15T14:58:15;10.30;74.20
45685;DHT22;46836;48.388;16.210;2023-03-15T15:00:45;10.20;72.70
45685;DHT22;46836;48.388;16.210;2023-03-15T15:03:19;10.10;73.40
45685;DHT22;46836;48.388;16.210;2023-03-15T15:05:48;10.10;73.70
45685;DHT22;46836;48.388;16.210;2023-03-15T15:08:17;9.90;73.80
45685;DHT22;46836;48.388;16.210;2023-03-15T15:10:50;9.90;73.80
45685;DHT22;46836;48.388;16.210;2023-03-15T15:13:27;9.80;74.10
45685;DHT22;46836;48.388;16.210;2023-03-15T15:15:55;9.80;75.60
45685;DHT22;46836;48.388;16.210;2023-03-15T15:18:24;9.70;77.40
45685;DHT22;46836;48.388;16.210;2023-03-15T15:20:53;9.70;77.20
45685;DHT22;46836;48.388;16.210;2023-03-15T15:23:25;9.90;76.70
45685;DHT22;46836;48.388;16.210;2023-03-15T15:26:00;10.00;73.00
45685;DHT22;46836;48.388;16.210;2023-03-15T15:28:29;10.10;73.80
45685;DHT22;46836;48.388;16.210;2023-03-15T15:31:04;10.30;75.20
45685;DHT22;46836;48.388;16.210;2023-03-15T15:33:33;10.50;75.70
45685;DHT22;46836;48.388;16.210;2023-03-15T15:36:01;10.40;71.90
45685;DHT22;46836;48.388;16.210;2023-03-15T15:38:32;10.40;72.80
45685;DHT22;46836;48.388;16.210;2023-03-15T15:41:10;10.30;70.50
45685;DHT22;46836;48.388;16.210;2023-03-15T15:43:39;10.20;73.50
45685;DHT22;46836;48.388;16.210;2023-03-15T15:46:11;10.30;75.70
45685;DHT22;46836;48.388;16.210;2023-03-15T15:48:38;10.20;73.10
45685;DHT22;46836;48.388;16.210;2023-03-15T15:51:29;10.10;75.70
45685;DHT22;46836;48.388;16.210;2023-03-15T15:53:59;10.00;73.70
45685;DHT22;46836;48.388;16.210;2023-03-15T15:56:44;10.00;75.30
45685;DHT22;46836;48.388;16.210;2023-03-15T15:59:14;10.00;75.80
45685;DHT22;46836;48.388;16.210;2023-03-15T16:01:43;10.00;77.50
45685;DHT22;46836;48.388;16.210;2023-03-15T16:04:26;9.80;76.30
45685;DHT22;46836;48.388;16.210;2023-03-15T16:06:59;9.60;77.70
45685;DHT22;46836;48.388;16.210;2023-03-15T16:09:30;9.50;75.90
45685;DHT22;46836;48.388;16.210;2023-03-15T16:12:09;9.50;76.40
45685;DHT22;46836;48.388;16.210;2023-03-15T16:14:38;9.40;76.80
45685;DHT22;46836;48.388;16.210;2023-03-15T16:17:17;9.20;78.10
45685;DHT22;46836;48.388;16.210;2023-03-15T16:19:45;9.10;76.90
45685;DHT22;46836;48.388;16.210;2023-03-15T16:22:13;9.00;77.10
45685;DHT22;46836;48.388;16.210;2023-03-15T16:24:42;8.90;78.10
45685;DHT22;46836;48.388;16.210;2023-03-15T16:27:14;8.80;76.40
45685;DHT22;46836;48.388;16.210;2023-03-15T16:29:46;8.80;76.60
45685;DHT22;46836;48.388;16.210;2023-03-15T16:32:20;8.80;77.10
45685;DHT22;46836;48.388;16.210;2023-03-15T16:35:11;8.70;77.70
45685;DHT22;46836;48.388;16.210;2023-03-15T16:37:43;8.70;79.00
45685;DHT22;46836;48.388;16.210;2023-03-15T16:40:21;8.70;80.00
45685;DHT22;46836;48.388;16.210;2023-03-15T16:42:52;8.60;79.80
45685;DHT22;46836;48.388;16.210;2023-03-15T16:45:20;8.50;80.70
45685;DHT22;46836;48.388;16.210;2023-03-15T16:47:49;8.40;81.10
45685;DHT22;46836;48.388;16.210;2023-03-15T16:50:17;8.30;80.40
45685;DHT22;46836;48.388;16.210;2023-03-15T16:52:48;8.30;81.40
45685;DHT22;46836;48.388;16.210;2023-03-15T16:55:22;8.10;81.80
45685;DHT22;46836;48.388;16.210;2023-03-15T16:57:50;8.10;81.20
45685;DHT22;46836;48.388;16.210;2023-03-15T17:00:20;8.00;82.30
45685;DHT22;46836;48.388;16.210;2023-03-15T17:02:52;7.90;82.70
45685;DHT22;46836;48.388;16.210;2023-03-15T17:05:20;7.90;83.50
45685;DHT22;46836;48.388;16.210;2023-03-15T17:07:52;7.80;83.50